Time;durP1;ratioP1;P1;durP2;ratioP2;P2;SDS_P1;SDS_P2;PMS_P1;PMS_P2;Temp;Humidity;BMP_temperature;BMP_pressure;BME280_temperature;BME280_humidity;BME280_pressure;Samples;Min_cycle;Max_cycle;Signal;HPM_P1;HPM_P2
2021/01/04 00:00:30;;;;;;;5.80;1.30;;;;;;;1.92;54.97;102019.03;5019658;28;20029;-72
2021/01/04 00:03:52;;;;;;;9.85;1.63;;;;;;;1.90;55.07;102020.72;5015396;28;20040;-71
2021/01/04 00:06:44;;;;;;;4.87;0.80;;;;;;;1.86;55.36;102018.09;4961918;28;20031;-71
2021/01/04 00:09:55;;;;;;;;;;;;;;;;;;;;;
2021/01/04 00:12:28;;;;;;;7.57;1.17;;;;;;;1.75;55.29;102015.34;5019639;28;20077;-71
2021/01/04 00:15:05;;;;;;;4.22;0.70;;;;;;;1.67;55.47;102001.50;5011614;28;20041;-73
2021/01/04 00:18:10;;;;;;;3.50;0.45;;;;;;;1.78;54.85;102007.66;5014647;28;20050;-73
2021/01/04 00:20:48;;;;;;;5.72;0.75;;;;;;;2.04;54.51;102002.91;5023227;28;20040;-73
2021/01/04 00:23:24;;;;;;;5.63;1.15;;;;;;;2.34;53.83;102005.00;5005161;28;20501;-72
2021/01/04 00:26:07;;;;;;;2.60;0.90;;;;;;;1.83;54.71;102003.44;5013928;28;20037;-73
2021/01/04 00:28:37;;;;;;;3.50;0.70;;;;;;;2.08;54.38;102003.78;5017595;28;20118;-72
2021/01/04 00:31:05;;;;;;;6.35;1.08;;;;;;;2.04;54.42;102009.75;5016196;28;20087;-72
2021/01/04 00:34:11;;;;;;;5.50;1.00;;;;;;;2.07;54.29;102008.09;5021731;28;20120;-71
2021/01/04 00:37:06;;;;;;;3.17;0.73;;;;;;;1.90;54.54;101997.53;5008148;28;20152;-71
2021/01/04 00:39:49;;;;;;;2.33;0.60;;;;;;;1.59;55.34;102014.25;5018297;28;20037;-72
2021/01/04 00:42:42;;;;;;;4.05;0.63;;;;;;;1.98;54.58;102015.69;5022565;28;20040;-72
2021/01/04 00:45:28;;;;;;;6.22;0.68;;;;;;;1.57;55.44;102010.78;5021863;28;20033;-75
2021/01/04 00:48:18;;;;;;;3.75;0.80;;;;;;;1.91;54.53;102029.34;5021179;28;20041;-72
2021/01/04 00:50:46;;;;;;;3.42;0.70;;;;;;;1.72;55.15;102010.16;5017747;28;20029;-73
2021/01/04 00:53:21;;;;;;;2.47;0.70;;;;;;;1.76;55.02;102011.06;5021254;28;20072;-71
2021/01/04 00:56:19;;;;;;;7.53;0.93;;;;;;;1.77;54.47;102003.34;5017870;28;20197;-72
2021/01/04 00:59:05;;;;;;;6.65;1.08;;;;;;;1.90;54.54;102015.56;5018025;28;20033;-72
2021/01/04 01:01:36;;;;;;;6.85;0.80;;;;;;;1.90;54.65;102007.84;5019723;28;20052;-73
2021/01/04 01:04:07;;;;;;;5.32;0.98;;;;;;;2.12;54.21;102010.72;5020577;28;20037;-72
2021/01/04 01:07:03;;;;;;;4.50;0.90;;;;;;;2.12;54.16;102015.88;5023505;28;20040;-72
2021/01/04 01:09:33;;;;;;;8.02;1.40;;;;;;;1.97;54.20;102011.38;5022736;28;20026;-72
2021/01/04 01:12:07;;;;;;;2.47;1.17;;;;;;;1.92;54.43;102010.44;5022413;28;20017;-72
2021/01/04 01:14:44;;;;;;;6.20;0.80;;;;;;;1.71;54.68;102008.44;5021864;28;20060;-71
2021/01/04 01:17:31;;;;;;;3.35;0.95;;;;;;;1.81;54.35;102020.59;5023405;28;20072;-72
2021/01/04 01:20:00;;;;;;;5.20;0.95;;;;;;;1.48;55.21;102015.78;5026138;28;20026;-71
2021/01/04 01:22:37;;;;;;;1.88;0.80;;;;;;;1.82;54.21;102022.34;5020592;28;20494;-72
2021/01/04 01:25:08;;;;;;;2.47;0.90;;;;;;;1.58;54.81;102016.81;5020846;28;20029;-73
2021/01/04 01:27:50;;;;;;;4.95;1.35;;;;;;;1.78;54.33;102020.56;5020540;28;20037;-71
2021/01/04 01:30:50;;;;;;;8.25;1.58;;;;;;;1.63;54.82;102025.47;5022910;28;20094;-72
2021/01/04 01:33:42;;;;;;;4.03;1.10;;;;;;;1.83;54.34;102029.22;5021207;28;20033;-71
2021/01/04 01:36:21;;;;;;;5.10;1.10;;;;;;;1.80;54.31;102031.75;5018791;28;20639;-71
2021/01/04 01:39:05;;;;;;;3.60;1.00;;;;;;;1.97;53.71;102028.56;5018437;28;20374;-73
2021/01/04 01:41:41;;;;;;;7.60;1.73;;;;;;;2.05;53.37;102034.69;5022358;28;20494;-72
2021/01/04 01:44:19;;;;;;;2.92;0.95;;;;;;;1.90;54.16;102035.34;5021521;28;20037;-72
2021/01/04 01:46:56;;;;;;;7.72;0.50;;;;;;;1.77;54.37;102039.44;5034653;28;20037;-72
2021/01/04 01:49:59;;;;;;;5.47;0.70;;;;;;;1.90;53.91;102031.03;5022053;28;20044;-72
2021/01/04 01:52:38;;;;;;;7.82;0.73;;;;;;;1.73;54.42;102035.97;5019859;28;20545;-71
2021/01/04 01:55:28;;;;;;;4.53;0.70;;;;;;;2.02;53.73;102037.22;5023282;28;20406;-74
2021/01/04 01:58:27;;;;;;;6.85;1.05;;;;;;;1.96;53.85;102039.72;5022458;28;20026;-72
2021/01/04 02:01:18;;;;;;;6.75;0.80;;;;;;;1.93;54.04;102025.94;5021166;28;20479;-71
2021/01/04 02:03:49;;;;;;;3.35;0.52;;;;;;;2.03;53.68;102031.22;5003216;28;21689;-71
2021/01/04 02:06:32;;;;;;;7.78;1.02;;;;;;;1.87;54.13;102033.59;5022452;28;20424;-71
2021/01/04 02:09:06;;;;;;;4.55;1.20;;;;;;;1.71;54.38;102029.06;5022758;28;20653;-71
2021/01/04 02:11:38;;;;;;;3.13;0.60;;;;;;;1.57;54.80;102031.38;5021960;28;20088;-71
2021/01/04 02:14:25;;;;;;;3.53;0.98;;;;;;;1.88;53.67;102030.16;5017865;28;20037;-71
2021/01/04 02:17:08;;;;;;;10.23;1.10;;;;;;;1.77;54.21;102023.97;5018734;28;20588;-71
2021/01/04 02:19:33;;;;;;;1.92;1.17;;;;;;;1.85;53.91;102037.00;5022489;28;20036;-71
2021/01/04 02:22:24;;;;;;;7.20;0.65;;;;;;;1.83;54.09;102028.38;5014072;28;20030;-72
2021/01/04 02:24:50;;;;;;;4.10;0.57;;;;;;;1.85;54.27;102035.28;5020359;28;20480;-71
2021/01/04 02:27:46;;;;;;;9.18;1.25;;;;;;;1.98;53.54;102043.19;5039725;28;20037;-74
2021/01/04 02:30:12;;;;;;;4.97;1.02;;;;;;;1.98;53.45;102038.91;5018245;28;20041;-73
2021/01/04 02:32:38;;;;;;;1.95;0.55;;;;;;;1.96;53.50;102042.31;5020274;28;20406;-73
2021/01/04 02:35:04;;;;;;;2.38;0.47;;;;;;;2.08;53.40;102034.72;5018807;28;20105;-73
2021/01/04 02:37:30;;;;;;;4.85;0.88;;;;;;;1.90;53.70;102031.03;5001721;28;20033;-72
2021/01/04 02:39:58;;;;;;;3.13;1.10;;;;;;;1.64;54.35;102030.66;5016162;28;20037;-72
2021/01/04 02:42:36;;;;;;;2.50;0.70;;;;;;;1.90;53.49;102025.88;5022784;28;20097;-72
2021/01/04 02:45:14;;;;;;;2.15;0.65;;;;;;;1.77;54.14;102026.53;5021051;28;20078;-72
2021/01/04 02:47:43;;;;;;;5.80;0.77;;;;;;;1.79;53.73;102031.72;5014216;28;20033;-72
2021/01/04 02:50:17;;;;;;;5.88;0.70;;;;;;;2.00;53.38;102037.22;5022620;28;20040;-70
2021/01/04 02:52:54;;;;;;;3.97;0.73;;;;;;;1.77;53.56;102030.84;5019722;28;20502;-71
2021/01/04 02:55:40;;;;;;;5.38;0.52;;;;;;;1.69;54.00;102030.75;5019694;28;20037;-71
2021/01/04 02:58:31;;;;;;;3.47;0.43;;;;;;;1.41;54.67;102038.00;5024296;28;20104;-71
2021/01/04 03:01:05;;;;;;;7.32;0.60;;;;;;;1.49;54.49;102033.84;5022550;28;20544;-73
2021/01/04 03:03:34;;;;;;;2.90;0.40;;;;;;;1.14;55.24;102040.06;5021565;28;20041;-72
2021/01/04 03:06:07;;;;;;;4.43;0.32;;;;;;;1.28;55.18;102046.31;5021610;28;20029;-72
2021/01/04 03:08:32;;;;;;;6.10;0.70;;;;;;;1.62;54.28;102047.81;5022242;28;20029;-71
2021/01/04 03:10:58;;;;;;;3.72;0.50;;;;;;;1.39;54.42;102042.22;5020538;28;20381;-70
2021/01/04 03:13:40;;;;;;;4.00;0.95;;;;;;;1.35;54.71;102050.78;5021212;28;20405;-70
2021/01/04 03:16:28;;;;;;;7.00;0.90;;;;;;;1.51;54.33;102052.78;5022611;28;20029;-71
2021/01/04 03:19:02;;;;;;;9.45;0.60;;;;;;;1.27;54.54;102060.91;5018707;28;20026;-71
2021/01/04 03:21:28;;;;;;;1.85;0.50;;;;;;;1.47;53.91;102051.00;5023992;28;20486;-70
2021/01/04 03:23:56;;;;;;;4.07;0.65;;;;;;;1.57;53.79;102046.00;5016063;28;20057;-71
2021/01/04 03:26:37;;;;;;;1.95;0.40;;;;;;;1.44;53.92;102043.22;5020831;28;20033;-71
2021/01/04 03:29:02;;;;;;;4.32;0.38;;;;;;;1.69;53.75;102041.03;5020740;28;20125;-71
2021/01/04 03:34:02;;;;;;;4.03;0.55;;;;;;;1.30;54.35;102052.38;4996122;28;20081;-69
2021/01/04 03:36:28;;;;;;;4.85;1.48;;;;;;;1.48;53.97;102046.69;4998934;28;20113;-67
2021/01/04 03:38:53;;;;;;;4.82;0.50;;;;;;;1.74;53.36;102034.25;5006945;28;20584;-69
2021/01/04 03:41:19;;;;;;;1.08;0.57;;;;;;;1.40;54.42;102043.13;4992324;28;20041;-69
2021/01/04 03:43:44;;;;;;;4.85;0.95;;;;;;;1.55;54.10;102043.41;5001529;28;20475;-69
2021/01/04 03:46:10;;;;;;;3.80;0.43;;;;;;;1.22;54.98;102056.53;4998215;28;20061;-70
2021/01/04 03:48:39;;;;;;;1.50;0.63;;;;;;;1.32;54.90;102050.69;5001039;28;20104;-69
2021/01/04 03:51:05;;;;;;;3.00;0.85;;;;;;;1.31;54.86;102049.84;5007340;28;20036;-68
2021/01/04 03:53:30;;;;;;;4.70;0.40;;;;;;;1.23;54.58;102053.13;4998843;28;20589;-69
2021/01/04 03:55:56;;;;;;;5.65;0.68;;;;;;;1.22;54.70;102039.38;5000870;28;20030;-68
2021/01/04 03:58:21;;;;;;;4.10;0.50;;;;;;;1.32;54.23;102041.25;5009938;28;20033;-69
2021/01/04 04:00:46;;;;;;;2.45;0.40;;;;;;;1.10;55.05;102045.19;4997851;28;20122;-69
2021/01/04 04:03:12;;;;;;;2.40;0.93;;;;;;;1.08;54.78;102034.00;4998426;28;20058;-69
2021/01/04 04:05:37;;;;;;;1.70;0.45;;;;;;;0.60;56.01;102042.50;4999879;28;20050;-68
2021/01/04 04:08:04;;;;;;;9.48;0.80;;;;;;;1.05;54.98;102049.38;5017580;28;20030;-70
2021/01/04 04:10:30;;;;;;;2.38;0.50;;;;;;;0.98;54.89;102050.09;4999932;28;20034;-69
2021/01/04 04:12:56;;;;;;;3.20;1.33;;;;;;;1.04;54.77;102037.34;4999804;28;20084;-70
2021/01/04 04:15:23;;;;;;;1.40;0.43;;;;;;;1.17;54.77;102041.00;5004039;28;20029;-70
2021/01/04 04:17:48;;;;;;;10.18;0.80;;;;;;;0.86;55.64;102045.59;4999299;28;20040;-68
2021/01/04 04:20:21;;;;;;;4.13;0.65;;;;;;;1.17;54.64;102043.59;5002270;28;20017;-68
2021/01/04 04:22:48;;;;;;;2.53;0.60;;;;;;;0.88;55.38;102053.31;5019107;28;20038;-67
2021/01/04 04:25:16;;;;;;;2.33;0.45;;;;;;;1.31;54.24;102048.97;4999295;28;20030;-69
2021/01/04 04:27:42;;;;;;;3.80;0.75;;;;;;;1.15;54.65;102054.69;4999597;28;20037;-67
2021/01/04 04:30:09;;;;;;;4.68;1.10;;;;;;;1.30;54.02;102052.38;5015440;28;20038;-69
2021/01/04 04:32:35;;;;;;;6.25;0.85;;;;;;;1.19;54.20;102033.28;4995803;28;20046;-69
2021/01/04 04:35:03;;;;;;;1.77;0.93;;;;;;;1.09;54.51;102042.56;5004548;28;20030;-68
2021/01/04 04:37:29;;;;;;;5.47;0.50;;;;;;;0.93;54.75;102050.88;4995040;28;20034;-67
2021/01/04 04:39:54;;;;;;;5.78;0.40;;;;;;;1.17;54.32;102050.41;4998905;28;20018;-69
2021/01/04 04:42:20;;;;;;;8.40;0.73;;;;;;;1.28;54.01;102048.91;4987836;28;20814;-70
2021/01/04 04:45:01;;;;;;;5.43;0.90;;;;;;;1.20;54.38;102060.81;5001959;28;20029;-69
2021/01/04 04:47:59;;;;;;;1.60;0.82;;;;;;;1.35;54.20;102068.81;5003795;28;20495;-68
2021/01/04 04:50:42;;;;;;;1.75;0.57;;;;;;;1.67;53.50;102066.78;5017791;28;20096;-69
2021/01/04 04:53:26;;;;;;;2.80;0.50;;;;;;;1.36;54.31;102072.25;5006719;28;20058;-68
2021/01/04 04:56:10;;;;;;;8.40;0.50;;;;;;;1.52;53.84;102064.81;5006925;28;20089;-69
2021/01/04 04:58:47;;;;;;;4.55;0.88;;;;;;;1.66;53.24;102071.91;4982503;28;20039;-68
2021/01/04 05:01:26;;;;;;;4.90;0.63;;;;;;;1.21;54.21;102078.84;5000742;28;20699;-71
2021/01/04 05:04:03;;;;;;;8.38;0.82;;;;;;;1.54;53.47;102076.88;5001184;28;20042;-68
2021/01/04 05:06:37;;;;;;;3.63;0.77;;;;;;;1.45;53.24;102078.44;5006326;28;20093;-69
2021/01/04 05:09:12;;;;;;;2.95;0.40;;;;;;;1.58;53.45;102076.09;5018096;28;20029;-69
2021/01/04 05:11:39;;;;;;;2.03;0.57;;;;;;;1.18;54.46;102090.81;5001349;28;20045;-68
2021/01/04 05:14:14;;;;;;;3.70;0.65;;;;;;;1.55;53.39;102089.78;5004000;28;20041;-68
2021/01/04 05:16:39;;;;;;;5.82;0.77;;;;;;;1.31;54.01;102080.75;5003496;28;20034;-68
2021/01/04 05:19:37;;;;;;;4.07;0.55;;;;;;;1.39;53.84;102093.75;5003153;28;20132;-68
2021/01/04 05:22:37;;;;;;;2.10;0.40;;;;;;;1.29;53.63;102086.72;5002139;28;20030;-67
2021/01/04 05:25:21;;;;;;;5.05;0.52;;;;;;;1.30;53.87;102088.44;5002823;28;20037;-68
2021/01/04 05:28:29;;;;;;;8.30;0.80;;;;;;;1.44;53.06;102092.19;4998146;28;20437;-68
2021/01/04 05:31:26;;;;;;;2.03;0.63;;;;;;;1.13;53.21;102089.81;4989218;28;20078;-68
2021/01/04 05:33:59;;;;;;;6.07;0.60;;;;;;;1.38;52.93;102086.00;5001332;28;20033;-67
2021/01/04 05:36:52;;;;;;;2.67;0.50;;;;;;;1.26;52.98;102099.53;5003569;28;20128;-68
2021/01/04 05:39:31;;;;;;;1.05;0.40;;;;;;;1.44;52.89;102092.19;5015349;28;20942;-68
2021/01/04 05:42:12;;;;;;;4.38;0.90;;;;;;;1.26;52.84;102096.94;5002874;28;20034;-67
2021/01/04 05:45:06;;;;;;;3.70;0.90;;;;;;;1.25;53.10;102105.53;4998536;28;20103;-69
2021/01/04 05:48:13;;;;;;;3.72;0.38;;;;;;;1.29;52.97;102102.16;4997301;28;20112;-70
2021/01/04 05:50:57;;;;;;;5.15;0.82;;;;;;;1.18;53.40;102096.81;4991680;28;20089;-70
2021/01/04 05:53:23;;;;;;;1.30;0.50;;;;;;;1.01;53.27;102080.19;5006232;28;20038;-71
2021/01/04 05:55:59;;;;;;;5.63;0.65;;;;;;;1.31;52.90;102098.78;4991805;28;20033;-68
2021/01/04 05:58:34;;;;;;;1.08;0.22;;;;;;;0.75;54.09;102107.97;5002834;28;20029;-70
2021/01/04 06:01:08;;;;;;;4.28;0.50;;;;;;;0.83;53.62;102101.28;5004461;28;20053;-69
2021/01/04 06:03:34;;;;;;;2.47;0.20;;;;;;;1.07;53.15;102106.03;5000463;28;20042;-68
2021/01/04 06:06:20;;;;;;;4.05;0.77;;;;;;;1.16;53.01;102105.34;5003127;28;20103;-68
2021/01/04 06:08:46;;;;;;;4.47;0.35;;;;;;;1.27;52.81;102109.00;4997328;28;20034;-68
2021/01/04 06:11:14;;;;;;;1.65;0.47;;;;;;;1.31;52.42;102103.06;5001814;28;20448;-69
2021/01/04 06:13:45;;;;;;;2.28;0.40;;;;;;;1.19;53.22;102113.13;5003468;28;20068;-68
2021/01/04 06:16:15;;;;;;;1.95;0.52;;;;;;;0.99;53.28;102113.63;4998482;28;20083;-68
2021/01/04 06:18:46;;;;;;;2.05;0.57;;;;;;;0.90;53.58;102119.47;5005747;28;20033;-71
2021/01/04 06:21:24;;;;;;;2.88;0.40;;;;;;;0.94;53.58;102125.53;5004612;28;20475;-68
2021/01/04 06:23:51;;;;;;;2.10;0.43;;;;;;;1.26;52.71;102128.75;4997464;28;20042;-68
2021/01/04 06:26:23;;;;;;;4.70;0.88;;;;;;;1.22;52.64;102120.94;4999460;28;20526;-69
2021/01/04 06:28:54;;;;;;;2.33;0.40;;;;;;;0.95;53.24;102131.53;4992665;28;20034;-68
2021/01/04 06:31:29;;;;;;;2.85;0.40;;;;;;;0.84;53.28;102126.19;5005272;28;20084;-69
2021/01/04 06:34:00;;;;;;;0.77;0.50;;;;;;;1.19;52.63;102131.16;5020156;28;20046;-68
2021/01/04 06:36:29;;;;;;;6.53;0.55;;;;;;;1.13;52.50;102131.03;5002379;28;20026;-69
2021/01/04 06:39:11;;;;;;;1.75;0.52;;;;;;;0.73;53.47;102125.09;4992392;28;20061;-68
2021/01/04 06:41:37;;;;;;;2.60;0.70;;;;;;;0.86;53.11;102137.41;5002270;28;20033;-68
2021/01/04 06:44:16;;;;;;;0.90;0.45;;;;;;;0.83;53.20;102143.31;5003133;28;20105;-68
2021/01/04 06:47:09;;;;;;;1.25;0.30;;;;;;;1.18;52.32;102134.59;5002651;28;20052;-68
2021/01/04 06:49:55;;;;;;;1.55;0.60;;;;;;;0.90;52.97;102139.16;5003025;28;20124;-69
2021/01/04 06:52:40;;;;;;;3.78;0.50;;;;;;;0.98;52.93;102145.34;5004625;28;20118;-67
2021/01/04 06:55:08;;;;;;;1.58;0.43;;;;;;;1.17;52.45;102140.56;5002179;28;20290;-71
2021/01/04 06:57:56;;;;;;;2.42;0.80;;;;;;;1.10;52.14;102149.88;5003225;28;20515;-71
2021/01/04 07:00:24;;;;;;;1.05;0.32;;;;;;;1.24;51.78;102145.00;5001919;28;20041;-69
2021/01/04 07:02:59;;;;;;;2.75;0.35;;;;;;;1.00;52.44;102148.81;5000781;28;20105;-68
2021/01/04 07:05:52;;;;;;;1.30;0.80;;;;;;;1.03;52.59;102148.88;5013117;28;20169;-69
2021/01/04 07:08:44;;;;;;;1.60;0.43;;;;;;;1.21;51.98;102150.09;5004231;28;20068;-70
2021/01/04 07:11:30;;;;;;;3.80;0.52;;;;;;;1.06;52.21;102154.09;4989520;28;20046;-71
2021/01/04 07:14:25;;;;;;;2.10;0.52;;;;;;;0.94;52.45;102153.84;5001673;28;20034;-68
2021/01/04 07:16:53;;;;;;;8.23;0.50;;;;;;;1.29;51.52;102151.13;4999739;28;20475;-70
2021/01/04 07:19:37;;;;;;;5.68;1.10;;;;;;;1.00;52.02;102150.53;5005074;28;20059;-68
2021/01/04 07:22:44;;;;;;;1.92;0.90;;;;;;;0.92;52.21;102160.66;5000693;28;20037;-68
2021/01/04 07:25:31;;;;;;;1.58;0.40;;;;;;;1.15;51.49;102157.69;5000790;28;20022;-70
2021/01/04 07:28:27;;;;;;;2.67;0.68;;;;;;;0.83;52.22;102163.91;4999734;28;20113;-69
2021/01/04 07:30:55;;;;;;;1.67;0.50;;;;;;;0.85;52.37;102162.25;4999735;28;20069;-69
2021/01/04 07:33:30;;;;;;;2.78;0.65;;;;;;;1.01;51.61;102168.56;4997169;28;20034;-70
2021/01/04 07:36:20;;;;;;;1.67;0.28;;;;;;;1.20;51.30;102158.66;5004188;28;20525;-68
2021/01/04 07:39:22;;;;;;;1.00;0.28;;;;;;;0.91;52.09;102169.25;4998560;28;20048;-68
2021/01/04 07:42:20;;;;;;;6.35;0.40;;;;;;;0.82;52.14;102161.31;5014696;28;20054;-68
2021/01/04 07:44:57;;;;;;;4.57;0.63;;;;;;;0.83;51.86;102158.75;5000175;28;20163;-68
2021/01/04 07:47:43;;;;;;;3.03;0.50;;;;;;;0.89;51.57;102158.03;5005509;28;20593;-68
2021/01/04 07:50:25;;;;;;;3.17;0.50;;;;;;;0.79;51.79;102167.28;5018989;28;20033;-69
2021/01/04 07:53:28;;;;;;;1.67;0.60;;;;;;;0.82;51.61;102162.19;4995187;28;20369;-68
2021/01/04 07:56:13;;;;;;;2.58;0.47;;;;;;;0.61;51.78;102172.91;5009448;28;20023;-67
2021/01/04 07:58:39;;;;;;;3.13;0.40;;;;;;;0.19;53.05;102168.50;4998139;28;20049;-68
2021/01/04 08:01:29;;;;;;;2.45;0.50;;;;;;;0.67;52.18;102175.59;5001603;28;20030;-67
2021/01/04 08:04:23;;;;;;;3.15;0.40;;;;;;;0.67;52.16;102174.72;5015029;28;20117;-67
2021/01/04 08:07:20;;;;;;;3.88;0.85;;;;;;;0.65;51.82;102172.09;4993606;28;20432;-70
2021/01/04 08:09:58;;;;;;;3.17;0.55;;;;;;;0.23;52.61;102179.72;4989758;28;20099;-67
2021/01/04 08:12:23;;;;;;;1.50;0.22;;;;;;;0.94;51.00;102181.31;5000267;28;20080;-69
2021/01/04 08:15:28;;;;;;;1.63;0.50;;;;;;;0.95;51.12;102194.22;4993712;28;20034;-68
2021/01/04 08:18:16;;;;;;;1.80;0.30;;;;;;;0.45;51.78;102196.53;4996749;22;20326;-70
2021/01/04 08:20:49;;;;;;;5.13;0.77;;;;;;;1.00;50.60;102190.03;5011597;28;20569;-68
2021/01/04 08:23:43;;;;;;;10.65;0.60;;;;;;;0.58;51.47;102195.97;5003747;28;20446;-70
2021/01/04 08:26:24;;;;;;;1.98;0.43;;;;;;;0.30;52.42;102191.00;5005372;28;20034;-68
2021/01/04 08:29:09;;;;;;;2.10;0.30;;;;;;;0.66;51.27;102194.44;5003314;28;20027;-69
2021/01/04 08:31:38;;;;;;;2.17;0.55;;;;;;;0.21;52.33;102195.13;4998693;28;20038;-69
2021/01/04 08:34:07;;;;;;;4.25;0.30;;;;;;;0.46;52.09;102195.69;5006673;28;20061;-69
2021/01/04 08:36:41;;;;;;;2.60;0.47;;;;;;;0.55;51.75;102203.63;5002226;28;20084;-71
2021/01/04 08:39:13;;;;;;;1.48;0.28;;;;;;;0.78;51.23;102201.56;5003684;28;20044;-70
2021/01/04 08:41:40;;;;;;;1.23;0.40;;;;;;;0.69;51.37;102207.38;4994066;28;20042;-70
2021/01/04 08:44:19;;;;;;;2.08;0.50;;;;;;;0.41;51.98;102203.31;5003489;28;20026;-70
2021/01/04 08:46:46;;;;;;;1.33;0.40;;;;;;;0.42;52.14;102206.75;5001433;28;20038;-70
2021/01/04 08:49:18;;;;;;;0.68;0.40;;;;;;;0.52;51.68;102203.53;5004501;28;20045;-68
2021/01/04 08:51:48;;;;;;;1.70;0.68;;;;;;;0.65;51.56;102207.28;4993143;28;20031;-69
2021/01/04 08:54:26;;;;;;;2.45;0.30;;;;;;;0.92;50.83;102204.44;5001656;28;20026;-69
2021/01/04 08:57:19;;;;;;;2.55;0.38;;;;;;;0.44;52.21;102205.09;4987832;28;22392;-70
2021/01/04 09:00:02;;;;;;;2.72;0.38;;;;;;;0.37;52.06;102203.22;5003079;28;20124;-70
2021/01/04 09:02:35;;;;;;;3.55;0.50;;;;;;;1.01;50.75;102199.47;5005984;28;20037;-70
2021/01/04 09:05:04;;;;;;;2.08;0.60;;;;;;;0.37;52.26;102208.34;5006848;28;20045;-69
2021/01/04 09:07:30;;;;;;;2.63;0.50;;;;;;;1.00;51.00;102209.75;5013899;28;20092;-69
2021/01/04 09:10:35;;;;;;;2.15;0.55;;;;;;;0.80;51.00;102207.63;5004346;28;20088;-70
2021/01/04 09:13:31;;;;;;;3.15;0.30;;;;;;;0.89;51.00;102204.38;5002596;28;20041;-68
2021/01/04 09:16:28;;;;;;;4.70;0.40;;;;;;;0.71;51.51;102214.28;5002290;28;20034;-70
2021/01/04 09:19:20;;;;;;;1.65;0.65;;;;;;;0.71;51.67;102214.28;5000917;28;20057;-69
2021/01/04 09:21:46;;;;;;;5.53;0.52;;;;;;;0.62;51.78;102218.38;5001866;28;20038;-71
2021/01/04 09:24:34;;;;;;;2.78;0.40;;;;;;;0.37;52.26;102208.34;5003553;28;20509;-69
2021/01/04 09:27:18;;;;;;;3.17;1.05;;;;;;;0.54;51.77;102221.59;5004511;28;20033;-72
2021/01/04 09:29:50;;;;;;;4.88;1.23;;;;;;;0.31;52.03;102213.34;5019718;28;21950;-70
2021/01/04 09:32:25;;;;;;;2.08;0.38;;;;;;;0.18;52.44;102213.03;5017617;28;20049;-69
2021/01/04 09:34:50;;;;;;;2.53;0.70;;;;;;;0.42;51.59;102212.75;5006838;28;20030;-69
2021/01/04 09:37:25;;;;;;;3.80;0.38;;;;;;;0.24;52.16;102202.91;5008671;28;20041;-69
2021/01/04 09:40:04;;;;;;;0.73;0.40;;;;;;;0.79;50.89;102212.72;5005395;28;20093;-69
2021/01/04 09:42:32;;;;;;;0.70;0.32;;;;;;;0.52;50.85;102211.25;5006723;28;20062;-69
2021/01/04 09:45:13;;;;;;;1.75;0.57;;;;;;;0.08;52.09;102216.22;5006707;28;20034;-69
2021/01/04 09:47:49;;;;;;;2.40;0.33;;;;;;;0.31;51.69;102218.47;5004528;28;20030;-69
2021/01/04 09:50:36;;;;;;;0.80;0.30;;;;;;;0.44;51.76;102212.81;5005845;28;20571;-70
2021/01/04 09:53:16;;;;;;;2.65;0.68;;;;;;;0.44;51.46;102212.81;5004967;28;20062;-71
2021/01/04 09:55:44;;;;;;;4.60;0.55;;;;;;;0.70;51.16;102213.38;5019570;28;20050;-69
2021/01/04 09:58:18;;;;;;;3.53;0.85;;;;;;;0.66;51.07;102206.44;5005463;28;20037;-69
2021/01/04 10:00:45;;;;;;;1.05;0.30;;;;;;;0.07;52.19;102214.47;5002519;28;20030;-69
2021/01/04 10:03:13;;;;;;;1.58;0.32;;;;;;;0.39;51.77;102206.66;5005383;28;20038;-69
2021/01/04 10:05:41;;;;;;;2.10;0.40;;;;;;;0.35;51.12;102202.31;5013458;28;20506;-69
2021/01/04 10:08:13;;;;;;;2.25;0.40;;;;;;;0.42;51.52;102197.31;5008953;28;20032;-68
2021/01/04 10:10:41;;;;;;;1.17;0.52;;;;;;;0.88;50.73;102207.75;5007108;28;20038;-69
2021/01/04 10:13:17;;;;;;;3.22;0.63;;;;;;;1.11;49.76;102201.41;5000465;28;20038;-69
2021/01/04 10:15:43;;;;;;;1.15;0.30;;;;;;;0.96;50.37;102201.09;5002789;28;20052;-70
2021/01/04 10:18:26;;;;;;;1.77;0.60;;;;;;;0.95;50.27;102198.47;5006408;28;20053;-69
2021/01/04 10:20:53;;;;;;;1.35;0.40;;;;;;;0.98;50.58;102204.56;5006558;28;20129;-71
2021/01/04 10:23:40;;;;;;;1.90;0.80;;;;;;;1.01;50.21;102194.31;5005544;28;20045;-69
2021/01/04 10:26:09;;;;;;;0.80;0.30;;;;;;;0.61;50.92;102193.47;5005722;28;20465;-69
2021/01/04 10:28:38;;;;;;;3.80;0.93;;;;;;;1.03;50.14;102191.78;4995941;28;20026;-69
2021/01/04 10:31:17;;;;;;;3.53;0.70;;;;;;;1.30;49.59;102192.38;5005408;28;20083;-69
2021/01/04 10:33:43;;;;;;;1.70;0.52;;;;;;;0.81;50.47;102188.75;5004490;28;20194;-69
2021/01/04 10:36:14;;;;;;;1.45;0.40;;;;;;;0.81;50.42;102175.00;5006882;28;20457;-69
2021/01/04 10:38:56;;;;;;;1.23;0.40;;;;;;;0.65;51.27;102182.41;5001411;28;20042;-69
2021/01/04 10:41:30;;;;;;;1.40;0.52;;;;;;;0.39;51.63;102186.06;5005219;28;20033;-71
2021/01/04 10:44:25;;;;;;;2.78;0.60;;;;;;;0.73;51.25;102179.16;5005765;28;20410;-71
2021/01/04 10:47:02;;;;;;;0.80;0.38;;;;;;;0.63;51.54;102186.63;5003726;28;20384;-71
2021/01/04 10:49:33;;;;;;;2.70;0.30;;;;;;;0.72;50.93;102177.41;5007569;28;20410;-69
2021/01/04 10:52:01;;;;;;;0.82;0.52;;;;;;;0.10;52.21;102168.28;5008947;28;20431;-69
2021/01/04 10:54:42;;;;;;;2.22;0.20;;;;;;;0.41;51.64;102174.13;5002610;28;20077;-69
2021/01/04 10:57:35;;;;;;;1.77;0.30;;;;;;;0.77;50.62;102178.34;5003526;28;20038;-71
2021/01/04 11:00:17;;;;;;;3.63;0.50;;;;;;;1.01;50.10;102176.28;5004912;28;20033;-69
2021/01/04 11:02:49;;;;;;;2.55;0.20;;;;;;;0.85;50.44;102182.84;5015596;28;20526;-69
2021/01/04 11:05:18;;;;;;;;;;;;;;;0.71;51.15;102167.94;5006380;28;20078;-69
2021/01/04 11:07:47;;;;;;;0.53;0.53;;;;;;;0.65;51.11;102166.09;5006551;28;19917;-69
2021/01/04 11:10:26;;;;;;;4.43;1.05;;;;;;;0.86;50.79;102170.84;5005267;28;20033;-69
2021/01/04 11:12:57;;;;;;;2.08;0.20;;;;;;;0.89;50.55;102163.19;5006679;28;20022;-69
2021/01/04 11:15:29;;;;;;;1.35;0.30;;;;;;;1.04;49.99;102160.94;5002156;28;20030;-71
2021/01/04 11:18:11;;;;;;;3.47;0.75;;;;;;;0.94;50.72;102161.56;4990695;28;20503;-69
2021/01/04 11:20:38;;;;;;;;;;;;;;;0.71;51.06;102152.50;5003831;28;20025;-69
2021/01/04 11:23:09;;;;;;;2.08;0.30;;;;;;;0.87;50.86;102149.41;5009437;28;19921;-70
2021/01/04 11:25:35;;;;;;;0.50;0.10;;;;;;;0.99;50.51;102157.41;5009351;28;20033;-70
2021/01/04 11:28:05;;;;;;;0.82;0.30;;;;;;;0.81;50.38;102147.56;5001222;28;20517;-70
2021/01/04 11:30:31;;;;;;;2.03;0.22;;;;;;;0.93;50.50;102148.69;5010567;28;20463;-69
2021/01/04 11:32:58;;;;;;;1.67;0.45;;;;;;;0.82;50.49;102148.47;5000614;28;20038;-69
2021/01/04 11:35:24;;;;;;;1.52;0.52;;;;;;;0.84;50.68;102150.22;5005096;28;20033;-69
2021/01/04 11:37:51;;;;;;;2.08;0.22;;;;;;;0.60;51.08;102140.28;5001803;28;20121;-69
2021/01/04 11:40:17;;;;;;;1.15;0.20;;;;;;;0.94;50.39;102148.69;5013158;28;20030;-69
2021/01/04 11:42:44;;;;;;;1.08;0.30;;;;;;;1.03;50.31;102145.44;5001754;28;20046;-69
2021/01/04 11:45:15;;;;;;;0.80;0.40;;;;;;;0.91;50.10;102140.91;5006901;28;20060;-69
2021/01/04 11:47:41;;;;;;;0.65;0.22;;;;;;;0.79;50.80;102131.25;5013259;28;20046;-69
2021/01/04 11:50:08;;;;;;;3.35;0.73;;;;;;;0.97;50.43;102137.59;5001337;28;20030;-69
2021/01/04 11:52:37;;;;;;;2.72;0.20;;;;;;;0.60;51.14;102129.97;5001512;28;20486;-70
2021/01/04 11:55:09;;;;;;;8.23;0.68;;;;;;;1.08;50.53;102124.09;5002106;28;20064;-69
2021/01/04 11:57:41;;;;;;;0.60;0.45;;;;;;;1.23;50.09;102130.38;5002925;28;20030;-70
2021/01/04 12:00:11;;;;;;;5.70;0.40;;;;;;;0.90;50.89;102129.75;5000181;28;20025;-68
2021/01/04 12:02:38;;;;;;;1.85;0.20;;;;;;;1.10;50.35;102124.13;5002134;28;20030;-69
2021/01/04 12:05:06;;;;;;;1.55;0.40;;;;;;;1.31;49.69;102121.97;5006509;28;20033;-69
2021/01/04 12:07:34;;;;;;;2.40;0.38;;;;;;;1.01;50.30;102117.06;5002934;28;20030;-71
2021/01/04 12:10:00;;;;;;;9.85;0.57;;;;;;;0.82;51.20;102117.56;5004099;28;20097;-69
2021/01/04 12:12:26;;;;;;;1.25;0.30;;;;;;;0.90;50.73;102113.44;5002869;28;20026;-68
2021/01/04 12:14:53;;;;;;;1.42;0.40;;;;;;;0.90;50.70;102098.88;5010725;28;20052;-69
2021/01/04 12:17:22;;;;;;;0.68;0.20;;;;;;;1.49;49.69;102095.69;5003575;28;20497;-69
2021/01/04 12:19:49;;;;;;;1.45;0.30;;;;;;;0.85;50.71;102104.75;5002679;28;20541;-69
2021/01/04 12:22:15;;;;;;;3.60;0.52;;;;;;;1.39;50.04;102098.03;5003981;28;20041;-69